createdAt,value
2022-10-12T00:02:19.913Z,99575.13
2022-10-12T00:04:46.751Z,99587.47
2022-10-12T00:07:13.531Z,99573.28
2022-10-12T00:09:40.306Z,99575.59
2022-10-12T00:12:07.126Z,99579.44
2022-10-12T00:14:36.967Z,99590.25
2022-10-12T00:17:04.239Z,99595.38
2022-10-12T00:19:31.017Z,99591.03
2022-10-12T00:21:57.818Z,99600.53
2022-10-12T00:24:25.450Z,99587.75
2022-10-12T00:26:52.291Z,99590.44
2022-10-12T00:29:19.066Z,99596.56
2022-10-12T00:31:45.831Z,99583.69
2022-10-12T00:34:12.580Z,99590.59
2022-10-12T00:36:39.413Z,99576.13
2022-10-12T00:39:08.385Z,99588.66
2022-10-12T00:41:40.697Z,99588.50
2022-10-12T00:44:45.520Z,99592.19
2022-10-12T00:47:38.896Z,99578.72
2022-10-12T00:50:17.836Z,99583.63
2022-10-12T00:53:00.012Z,99568.72
2022-10-12T00:55:33.034Z,99576.53
2022-10-12T00:58:00.867Z,99576.72
2022-10-12T01:00:27.717Z,99581.84
2022-10-12T01:02:55.212Z,99588.63
2022-10-12T01:05:23.005Z,99586.38
2022-10-12T01:07:50.091Z,99582.75
2022-10-12T01:10:16.942Z,99585.44
2022-10-12T01:12:47.277Z,99580.19
2022-10-12T01:15:14.441Z,99578.81
2022-10-12T01:18:05.166Z,99586.19
2022-10-12T01:20:59.612Z,99574.97
2022-10-12T01:23:48.833Z,99581.34
2022-10-12T01:26:38.461Z,99574.78
2022-10-12T01:29:50.436Z,99583.38
2022-10-12T01:32:39.097Z,99573.94
2022-10-12T01:35:37.076Z,99585.22
2022-10-12T01:38:13.849Z,99581.16
2022-10-12T01:40:51.419Z,99568.41
2022-10-12T01:43:18.684Z,99569.13
2022-10-12T01:45:45.433Z,99554.78
2022-10-12T01:48:12.247Z,99575.47
2022-10-12T01:50:53.897Z,99550.16
2022-10-12T01:54:04.319Z,99575.53
2022-10-12T01:57:52.479Z,99563.19
2022-10-12T02:00:19.773Z,99562.31
2022-10-12T02:03:10.416Z,99572.50
2022-10-12T02:06:01.440Z,99550.91
2022-10-12T02:08:52.902Z,99571.81
2022-10-12T02:11:23.218Z,99526.41
2022-10-12T02:14:03.108Z,99569.28
2022-10-12T02:16:37.199Z,99567.03
2022-10-12T02:19:07.318Z,99549.19
2022-10-12T02:21:35.332Z,99566.44
2022-10-12T02:24:06.906Z,99574.00
2022-10-12T02:26:37.958Z,99553.66
2022-10-12T02:29:11.017Z,99566.34
2022-10-12T02:31:55.350Z,99569.91
2022-10-12T02:35:06.646Z,99553.00
2022-10-12T02:37:55.541Z,99542.13
2022-10-12T02:40:33.687Z,99555.66
2022-10-12T02:43:29.553Z,99559.28
2022-10-12T02:45:58.609Z,99561.91
2022-10-12T02:48:26.691Z,99546.66
2022-10-12T02:50:56.832Z,99569.19
2022-10-12T02:53:25.928Z,99558.91
2022-10-12T02:56:00.423Z,99553.13
2022-10-12T02:58:27.345Z,99554.81
2022-10-12T03:00:54.245Z,99558.66
2022-10-12T03:03:21.062Z,99567.06
2022-10-12T03:05:47.820Z,99555.47
2022-10-12T03:08:14.629Z,99572.44
2022-10-12T03:10:41.382Z,99561.75
2022-10-12T03:13:08.279Z,99574.38
2022-10-12T03:15:35.082Z,99553.50
2022-10-12T03:18:01.831Z,99568.94
2022-10-12T03:20:28.589Z,99569.72
2022-10-12T03:22:55.458Z,99570.66
2022-10-12T03:25:22.207Z,99577.69
2022-10-12T03:27:49.063Z,99564.84
2022-10-12T03:30:16.407Z,99581.13
2022-10-12T03:32:43.360Z,99587.19
2022-10-12T03:35:10.288Z,99584.75
2022-10-12T03:37:37.170Z,99587.56
2022-10-12T03:40:04.734Z,99578.97
2022-10-12T03:42:31.510Z,99591.78
2022-10-12T03:44:58.265Z,99583.50
2022-10-12T03:47:25.140Z,99592.78
2022-10-12T03:49:51.921Z,99586.88
2022-10-12T03:52:18.651Z,99583.50
2022-10-12T03:54:45.432Z,99586.72
2022-10-12T03:57:12.199Z,99570.03
2022-10-12T03:59:39.046Z,99591.16
2022-10-12T04:02:05.794Z,99586.78
2022-10-12T04:04:32.555Z,99583.16
2022-10-12T04:06:59.368Z,99585.78
2022-10-12T04:09:26.114Z,99585.72
2022-10-12T04:11:52.847Z,99584.91
2022-10-12T04:14:19.606Z,99573.78
2022-10-12T04:16:46.394Z,99577.19
2022-10-12T04:19:14.034Z,99572.75
2022-10-12T04:21:41.148Z,99583.16
2022-10-12T04:24:08.091Z,99577.78
2022-10-12T04:26:34.981Z,99571.38
2022-10-12T04:29:01.774Z,99582.31
2022-10-12T04:31:28.570Z,99581.22
2022-10-12T04:33:58.688Z,99579.63
2022-10-12T04:36:26.728Z,99580.47
2022-10-12T04:38:58.446Z,99583.69
2022-10-12T04:41:27.673Z,99571.94
2022-10-12T04:43:54.705Z,99588.81
2022-10-12T04:46:21.882Z,99575.69
2022-10-12T04:48:48.639Z,99571.63
2022-10-12T04:51:15.615Z,99591.31
2022-10-12T04:53:42.364Z,99579.53
2022-10-12T04:56:09.271Z,99588.72
2022-10-12T04:58:36.265Z,99591.91
2022-10-12T05:01:03.203Z,99575.09
2022-10-12T05:03:30.129Z,99577.69
2022-10-12T05:05:56.974Z,99568.28
2022-10-12T05:08:23.805Z,99584.03
2022-10-12T05:10:50.600Z,99581.59
2022-10-12T05:13:17.613Z,99592.53
2022-10-12T05:15:45.166Z,99581.59
2022-10-12T05:18:12.212Z,99583.16
2022-10-12T05:20:39.114Z,99592.34
2022-10-12T05:23:05.861Z,99585.78
2022-10-12T05:25:32.718Z,99592.34
2022-10-12T05:27:59.570Z,99580.44
2022-10-12T05:30:26.468Z,99585.31
2022-10-12T05:32:53.233Z,99576.03
2022-10-12T05:35:20.043Z,99592.94
2022-10-12T05:37:46.806Z,99588.97
2022-10-12T05:40:13.743Z,99574.38
2022-10-12T05:42:40.838Z,99583.78
2022-10-12T05:45:08.398Z,99583.63
2022-10-12T05:47:35.321Z,99582.88
2022-10-12T05:50:02.298Z,99592.19
2022-10-12T05:52:29.112Z,99599.78
2022-10-12T05:54:55.882Z,99577.06
2022-10-12T05:57:22.654Z,99599.78
2022-10-12T05:59:49.498Z,99601.38
2022-10-12T06:02:18.258Z,99599.88
2022-10-12T06:04:45.539Z,99599.78
2022-10-12T06:07:12.391Z,99611.69
2022-10-12T06:09:39.583Z,99609.03
2022-10-12T06:12:09.337Z,99601.44
2022-10-12T06:14:36.266Z,99607.19
2022-10-12T06:17:03.105Z,99601.53
2022-10-12T06:19:29.919Z,99593.63
2022-10-12T06:21:57.377Z,99608.88
2022-10-12T06:24:24.149Z,99600.88
2022-10-12T06:26:50.906Z,99577.41
2022-10-12T06:29:17.694Z,99599.44
2022-10-12T06:31:48.942Z,99600.88
2022-10-12T06:34:18.386Z,99616.28
2022-10-12T06:36:45.152Z,99607.78
2022-10-12T06:39:12.111Z,99614.69
2022-10-12T06:41:39.081Z,99627.38
2022-10-12T06:44:06.625Z,99614.69
2022-10-12T06:46:33.517Z,99601.16
2022-10-12T06:49:00.324Z,99605.34
2022-10-12T06:51:27.091Z,99618.47
2022-10-12T06:53:56.981Z,99618.75
2022-10-12T06:56:23.772Z,99625.53
2022-10-12T06:58:55.716Z,99627.06
2022-10-12T07:01:22.766Z,99624.47
2022-10-12T07:03:49.605Z,99615.13
2022-10-12T07:06:16.446Z,99596.44
2022-10-12T07:08:43.319Z,99623.44
2022-10-12T07:11:12.846Z,99617.56
2022-10-12T07:13:39.746Z,99607.88
2022-10-12T07:16:06.999Z,99619.84
2022-10-12T07:18:34.215Z,99629.25
2022-10-12T07:21:02.467Z,99618.00
2022-10-12T07:23:32.059Z,99626.72
2022-10-12T07:25:59.303Z,99609.41
2022-10-12T07:28:26.949Z,99617.84
2022-10-12T07:30:53.812Z,99613.47
2022-10-12T07:33:20.576Z,99626.25
2022-10-12T07:36:13.260Z,99614.16
2022-10-12T07:38:44.660Z,99615.13
2022-10-12T07:41:12.061Z,99617.34
2022-10-12T07:43:39.195Z,99613.97
2022-10-12T07:46:06.056Z,99616.31
2022-10-12T07:48:34.091Z,99617.69
2022-10-12T07:51:09.987Z,99600.34
2022-10-12T07:53:38.812Z,99622.72
2022-10-12T07:56:14.889Z,99627.13
2022-10-12T07:58:49.987Z,99625.25
2022-10-12T08:01:17.898Z,99612.63
2022-10-12T08:03:44.726Z,99609.19
2022-10-12T08:06:16.150Z,99626.94
2022-10-12T08:08:43.266Z,99625.91
2022-10-12T08:11:11.063Z,99623.16
2022-10-12T08:13:38.598Z,99614.47
2022-10-12T08:16:10.231Z,99619.53
2022-10-12T08:18:37.126Z,99622.13
2022-10-12T08:21:05.907Z,99623.47
2022-10-12T08:23:32.688Z,99623.56
2022-10-12T08:25:59.688Z,99615.84
2022-10-12T08:28:26.705Z,99620.69
2022-10-12T08:30:53.561Z,99607.16
2022-10-12T08:33:20.740Z,99626.59
2022-10-12T08:35:47.985Z,99622.06
2022-10-12T08:38:15.875Z,99636.66
2022-10-12T08:40:53.963Z,99617.72
2022-10-12T08:43:46.842Z,99630.16
2022-10-12T08:46:13.739Z,99626.53
2022-10-12T08:48:51.844Z,99623.91
2022-10-12T08:51:24.658Z,99611.91
2022-10-12T08:54:08.323Z,99616.84
2022-10-12T08:56:35.819Z,99627.19
2022-10-12T08:59:03.667Z,99617.50
2022-10-12T09:02:07.596Z,99615.47
2022-10-12T09:05:01.398Z,99617.16
2022-10-12T09:07:46.227Z,99608.59
2022-10-12T09:10:44.242Z,99618.75
2022-10-12T09:13:28.336Z,99625.56
2022-10-12T09:16:22.864Z,99617.59
2022-10-12T09:19:20.825Z,99599.56
2022-10-12T09:21:49.631Z,99593.06
2022-10-12T09:24:21.069Z,99600.69
2022-10-12T09:26:52.828Z,99611.66
2022-10-12T09:29:27.050Z,99612.38
2022-10-12T09:32:35.413Z,99620.22
2022-10-12T09:35:04.304Z,99623.59
2022-10-12T09:37:32.502Z,99625.28
2022-10-12T09:39:59.841Z,99622.69
2022-10-12T09:42:26.621Z,99613.22
2022-10-12T09:45:02.501Z,99616.59
2022-10-12T09:47:32.108Z,99619.97
2022-10-12T09:50:05.758Z,99615.41
2022-10-12T09:52:35.402Z,99627.28
2022-10-12T09:55:05.792Z,99626.25
2022-10-12T09:57:39.873Z,99611.84
2022-10-12T10:00:27.232Z,99633.81
2022-10-12T10:02:56.329Z,99623.63
2022-10-12T10:05:38.022Z,99624.03
2022-10-12T10:08:24.155Z,99614.84
2022-10-12T10:10:57.041Z,99628.34
2022-10-12T10:13:31.225Z,99628.34
2022-10-12T10:16:08.110Z,99617.69
2022-10-12T10:18:48.696Z,99611.63
2022-10-12T10:21:29.271Z,99622.72
2022-10-12T10:24:00.549Z,99618.34
2022-10-12T10:26:29.919Z,99622.72
2022-10-12T10:29:23.099Z,99625.09
2022-10-12T10:32:11.779Z,99623.31
2022-10-12T10:34:41.609Z,99618.06
2022-10-12T10:37:20.250Z,99604.63
2022-10-12T10:39:51.761Z,99615.38
2022-10-12T10:42:25.226Z,99610.09
2022-10-12T10:45:08.631Z,99617.81
2022-10-12T10:47:46.350Z,99602.41
2022-10-12T10:50:33.242Z,99604.91
2022-10-12T10:53:04.843Z,99607.28
2022-10-12T10:55:45.615Z,99612.41
2022-10-12T10:58:38.750Z,99614.75
2022-10-12T11:01:37.969Z,99612.03
2022-10-12T11:04:09.977Z,99613.72
2022-10-12T11:06:48.995Z,99614.56
2022-10-12T11:09:22.635Z,99609.31
2022-10-12T11:12:02.681Z,99614.38
2022-10-12T11:14:46.013Z,99597.19
2022-10-12T11:17:24.623Z,99598.72
2022-10-12T11:20:21.775Z,99607.47
2022-10-12T11:22:54.303Z,99594.41
2022-10-12T11:25:40.221Z,99595.16
2022-10-12T11:28:08.184Z,99579.84
2022-10-12T11:30:47.603Z,99572.47
2022-10-12T11:33:38.482Z,99604.53
2022-10-12T11:36:15.126Z,99598.16
2022-10-12T11:38:47.427Z,99600.88
2022-10-12T11:42:16.520Z,99581.94
2022-10-12T11:44:44.908Z,99585.75
2022-10-12T11:47:29.711Z,99589.78
2022-10-12T11:50:27.130Z,99578.97
2022-10-12T11:52:56.864Z,99585.31
2022-10-12T11:55:35.709Z,99572.97
2022-10-12T11:58:13.850Z,99583.91
2022-10-12T12:00:49.748Z,99570.94
2022-10-12T12:03:30.865Z,99573.34
2022-10-12T12:06:29.602Z,99570.72
2022-10-12T12:09:19.788Z,99553.47
2022-10-12T12:11:46.547Z,99556.91
2022-10-12T12:14:25.590Z,99570.38
2022-10-12T12:17:20.743Z,99562.31
2022-10-12T12:20:03.772Z,99549.63
2022-10-12T12:22:50.323Z,99550.25
2022-10-12T12:25:23.851Z,99560.25
2022-10-12T12:28:22.359Z,99553.25
2022-10-12T12:31:02.189Z,99553.06
2022-10-12T12:33:36.079Z,99554.28
2022-10-12T12:36:08.426Z,99556.44
2022-10-12T12:38:46.712Z,99543.63
2022-10-12T12:41:22.212Z,99536.72
2022-10-12T12:43:56.374Z,99542.31
2022-10-12T12:46:27.066Z,99531.28
2022-10-12T12:48:53.727Z,99541.19
2022-10-12T12:51:35.115Z,99518.53
2022-10-12T12:54:18.041Z,99530.72
2022-10-12T12:57:28.851Z,99536.69
2022-10-12T13:00:22.782Z,99522.13
2022-10-12T13:03:18.927Z,99526.25
2022-10-12T13:06:41.255Z,99541.16
2022-10-12T13:09:34.159Z,99534.03
2022-10-12T13:12:43.245Z,99531.59
2022-10-12T13:15:52.752Z,99516.41
2022-10-12T13:18:48.019Z,99530.69
2022-10-12T13:21:26.302Z,99533.31
2022-10-12T13:24:19.312Z,99516.84
2022-10-12T13:26:51.654Z,99506.50
2022-10-12T13:29:48.567Z,99514.59
2022-10-12T13:32:54.090Z,99517.09
2022-10-12T13:35:40.435Z,99505.78
2022-10-12T13:38:25.415Z,99513.25
2022-10-12T13:41:17.825Z,99497.75
2022-10-12T13:43:57.017Z,99505.28
2022-10-12T13:46:59.134Z,99489.38
2022-10-12T13:49:35.610Z,99497.97
2022-10-12T13:52:22.621Z,99496.22
2022-10-12T13:54:50.574Z,99478.38
2022-10-12T13:57:23.070Z,99497.78
2022-10-12T13:59:57.616Z,99494.34
2022-10-12T14:02:28.158Z,99491.91
2022-10-12T14:04:57.956Z,99495.06
2022-10-12T14:07:45.657Z,99483.13
2022-10-12T14:10:36.475Z,99482.91
2022-10-12T14:13:04.991Z,99477.91
2022-10-12T14:15:38.951Z,99487.03
2022-10-12T14:18:32.324Z,99475.19
2022-10-12T14:21:27.719Z,99485.22
2022-10-12T14:23:58.216Z,99486.06
2022-10-12T14:26:38.295Z,99476.44
2022-10-12T14:29:40.465Z,99479.81
2022-10-12T14:32:37.410Z,99485.03
2022-10-12T14:35:19.139Z,99458.00
2022-10-12T14:37:47.536Z,99481.72
2022-10-12T14:40:28.147Z,99459.69
2022-10-12T14:43:04.132Z,99474.63
2022-10-12T14:45:32.684Z,99458.47
2022-10-12T14:48:01.418Z,99450.53
2022-10-12T14:50:31.245Z,99459.97
2022-10-12T14:53:02.884Z,99467.31
2022-10-12T14:55:32.704Z,99470.03
2022-10-12T14:58:00.051Z,99436.31
2022-10-12T15:00:37.817Z,99465.31
2022-10-12T15:03:05.337Z,99465.84
2022-10-12T15:05:33.738Z,99461.66
2022-10-12T15:08:07.060Z,99462.28
2022-10-12T15:10:34.004Z,99461.56
2022-10-12T15:13:00.830Z,99455.16
2022-10-12T15:15:43.833Z,99455.38
2022-10-12T15:18:11.032Z,99456.84
2022-10-12T15:20:38.879Z,99447.19
2022-10-12T15:23:06.284Z,99453.16
2022-10-12T15:25:42.769Z,99431.69
2022-10-12T15:28:09.832Z,99424.69
2022-10-12T15:30:47.528Z,99437.56
2022-10-12T15:33:24.389Z,99436.59
2022-10-12T15:35:51.294Z,99431.47
2022-10-12T15:38:18.144Z,99423.22
2022-10-12T15:40:46.141Z,99441.13
2022-10-12T15:43:13.318Z,99442.59
2022-10-12T15:45:41.056Z,99439.22
2022-10-12T15:48:09.748Z,99435.28
2022-10-12T15:50:49.153Z,99445.94
2022-10-12T15:53:25.295Z,99443.53
2022-10-12T15:55:54.250Z,99442.59
2022-10-12T15:58:21.629Z,99431.91
2022-10-12T16:00:48.594Z,99440.41
2022-10-12T16:03:24.536Z,99445.44
2022-10-12T16:05:53.360Z,99432.75
2022-10-12T16:08:20.152Z,99436.19
2022-10-12T16:10:47.804Z,99444.06
2022-10-12T16:13:15.513Z,99449.28
2022-10-12T16:15:43.905Z,99446.78
2022-10-12T16:18:11.697Z,99446.25
2022-10-12T16:20:53.596Z,99439.25
2022-10-12T16:23:29.353Z,99445.53
2022-10-12T16:26:00.990Z,99444.38
2022-10-12T16:28:28.084Z,99427.28
2022-10-12T16:30:55.489Z,99372.88
2022-10-12T16:33:22.611Z,99420.31
2022-10-12T16:35:49.522Z,99398.72
2022-10-12T16:38:19.714Z,99358.72
2022-10-12T16:40:48.588Z,99464.56
2022-10-12T16:43:15.477Z,99461.22
2022-10-12T16:45:42.252Z,99453.94
2022-10-12T16:48:09.112Z,99457.38
2022-10-12T16:50:40.673Z,99478.31
2022-10-12T16:53:08.076Z,99474.13
2022-10-12T16:55:38.619Z,99478.44
2022-10-12T16:58:05.646Z,99465.75
2022-10-12T17:00:33.392Z,99470.03
2022-10-12T17:03:00.278Z,99459.53
2022-10-12T17:05:27.058Z,99476.63
2022-10-12T17:07:53.880Z,99465.41
2022-10-12T17:10:20.742Z,99465.50
2022-10-12T17:12:47.657Z,99475.44
2022-10-12T17:15:14.498Z,99473.84
2022-10-12T17:17:41.289Z,99473.31
2022-10-12T17:20:08.981Z,99461.78
2022-10-12T17:22:35.846Z,99474.94
2022-10-12T17:25:02.750Z,99479.34
2022-10-12T17:27:32.157Z,99475.25
2022-10-12T17:29:59.498Z,99476.47
2022-10-12T17:32:26.653Z,99469.97
2022-10-12T17:34:53.488Z,99478.00
2022-10-12T17:37:21.839Z,99488.16
2022-10-12T17:39:50.133Z,99477.84
2022-10-12T17:42:18.014Z,99487.06
2022-10-12T17:44:45.019Z,99483.50
2022-10-12T17:47:11.798Z,99450.16
2022-10-12T17:49:38.648Z,99477.19
2022-10-12T17:52:05.751Z,99484.47
2022-10-12T17:54:32.811Z,99459.09
2022-10-12T17:56:59.549Z,99486.44
2022-10-12T17:59:26.726Z,99481.13
2022-10-12T18:01:54.230Z,99488.59
2022-10-12T18:04:21.294Z,99477.00
2022-10-12T18:06:48.134Z,99488.88
2022-10-12T18:09:14.950Z,99488.56
2022-10-12T18:11:41.903Z,99469.56
2022-10-12T18:14:10.818Z,99489.16
2022-10-12T18:16:38.170Z,99489.53
2022-10-12T18:19:06.830Z,99490.47
2022-10-12T18:21:34.144Z,99486.44
2022-10-12T18:24:09.330Z,99490.00
2022-10-12T18:26:39.688Z,99491.22
2022-10-12T18:29:06.499Z,99496.25
2022-10-12T18:31:33.356Z,99492.31
2022-10-12T18:34:00.181Z,99495.78
2022-10-12T18:36:27.689Z,99490.91
2022-10-12T18:38:54.822Z,99502.84
2022-10-12T18:41:25.593Z,99509.84
2022-10-12T18:43:58.636Z,99508.72
2022-10-12T18:46:28.519Z,99504.81
2022-10-12T18:48:56.075Z,99492.38
2022-10-12T18:51:27.822Z,99491.47
2022-10-12T18:53:55.862Z,99489.31
2022-10-12T18:56:22.883Z,99503.88
2022-10-12T18:58:50.246Z,99503.13
2022-10-12T19:01:22.146Z,99504.78
2022-10-12T19:03:49.146Z,99487.97
2022-10-12T19:06:22.626Z,99486.13
2022-10-12T19:08:50.161Z,99509.34
2022-10-12T19:11:20.618Z,99499.94
2022-10-12T19:13:57.330Z,99497.50
2022-10-12T19:16:24.834Z,99502.16
2022-10-12T19:19:19.679Z,99494.16
2022-10-12T19:21:49.233Z,99467.06
2022-10-12T19:24:16.193Z,99493.19
2022-10-12T19:26:43.863Z,99504.22
2022-10-12T19:29:11.062Z,99506.25
2022-10-12T19:31:42.247Z,99488.59
2022-10-12T19:34:12.315Z,99505.91
2022-10-12T19:36:40.360Z,99508.44
2022-10-12T19:39:12.066Z,99500.88
2022-10-12T19:41:39.162Z,99500.31
2022-10-12T19:44:06.891Z,99510.97
2022-10-12T19:46:34.896Z,99518.06
2022-10-12T19:49:01.735Z,99502.94
2022-10-12T19:51:30.818Z,99519.41
2022-10-12T19:54:01.720Z,99515.19
2022-10-12T19:56:28.837Z,99492.78
2022-10-12T19:58:57.480Z,99515.72
2022-10-12T20:01:32.094Z,99498.91
2022-10-12T20:03:59.434Z,99523.38
2022-10-12T20:06:30.392Z,99515.91
2022-10-12T20:09:01.475Z,99519.44
2022-10-12T20:11:28.530Z,99506.25
2022-10-12T20:13:56.179Z,99525.16
2022-10-12T20:16:25.343Z,99520.44
2022-10-12T20:18:52.658Z,99527.34
2022-10-12T20:21:22.644Z,99524.31
2022-10-12T20:23:51.173Z,99522.06
2022-10-12T20:26:24.384Z,99503.53
2022-10-12T20:28:53.532Z,99516.44
2022-10-12T20:31:23.579Z,99532.56
2022-10-12T20:33:54.889Z,99536.16
2022-10-12T20:36:32.145Z,99537.94
2022-10-12T20:38:59.835Z,99538.94
2022-10-12T20:41:27.810Z,99542.63
2022-10-12T20:43:59.955Z,99538.63
2022-10-12T20:46:28.755Z,99549.13
2022-10-12T20:48:59.378Z,99541.53
2022-10-12T20:51:33.343Z,99537.56
2022-10-12T20:54:01.338Z,99539.34
2022-10-12T20:56:30.646Z,99543.78
2022-10-12T20:58:58.220Z,99537.81
2022-10-12T21:01:28.692Z,99525.44
2022-10-12T21:03:55.950Z,99528.81
2022-10-12T21:06:23.532Z,99537.53
2022-10-12T21:08:52.725Z,99539.31
2022-10-12T21:11:20.201Z,99533.50
2022-10-12T21:13:47.081Z,99529.13
2022-10-12T21:16:14.275Z,99529.28
2022-10-12T21:18:41.979Z,99521.69
2022-10-12T21:21:18.909Z,99531.97
2022-10-12T21:23:58.807Z,99518.59
2022-10-12T21:26:28.839Z,99509.50
2022-10-12T21:28:55.790Z,99517.81
2022-10-12T21:31:22.664Z,99520.59
2022-10-12T21:33:49.883Z,99487.31
2022-10-12T21:36:23.511Z,99510.81
2022-10-12T21:38:50.659Z,99514.91
2022-10-12T21:41:21.030Z,99511.53
2022-10-12T21:43:49.015Z,99513.41
2022-10-12T21:46:24.923Z,99513.53
2022-10-12T21:48:52.811Z,99513.63
2022-10-12T21:51:22.504Z,99515.41
2022-10-12T21:53:50.478Z,99522.38
2022-10-12T21:56:29.777Z,99524.28
2022-10-12T21:58:59.631Z,99510.66
2022-10-12T22:01:38.475Z,99520.13
2022-10-12T22:04:11.730Z,99509.38
2022-10-12T22:06:38.695Z,99509.44
2022-10-12T22:09:16.405Z,99509.13
2022-10-12T22:11:43.907Z,99516.16
2022-10-12T22:14:15.965Z,99516.50
2022-10-12T22:16:43.365Z,99508.06
2022-10-12T22:19:15.180Z,99504.88
2022-10-12T22:21:42.196Z,99508.97
2022-10-12T22:24:09.099Z,99503.94
2022-10-12T22:26:36.021Z,99492.75
2022-10-12T22:29:07.462Z,99493.59
2022-10-12T22:31:35.232Z,99498.56
2022-10-12T22:34:02.190Z,99502.19
2022-10-12T22:36:29.070Z,99493.84
2022-10-12T22:38:55.851Z,99499.19
2022-10-12T22:41:24.441Z,99502.47
2022-10-12T22:43:54.929Z,99504.34
2022-10-12T22:46:25.427Z,99496.66
2022-10-12T22:48:53.250Z,99516.41
2022-10-12T22:51:33.176Z,99509.53
2022-10-12T22:54:01.060Z,99503.84
2022-10-12T22:56:28.593Z,99494.47
2022-10-12T22:58:58.495Z,99497.06
2022-10-12T23:01:26.074Z,99506.28
2022-10-12T23:03:54.270Z,99493.69
2022-10-12T23:06:21.661Z,99504.09
2022-10-12T23:08:48.584Z,99499.94
2022-10-12T23:11:18.802Z,99498.34
2022-10-12T23:13:46.900Z,99495.69
2022-10-12T23:16:16.071Z,99499.19
2022-10-12T23:18:42.855Z,99483.13
2022-10-12T23:21:13.481Z,99490.91
2022-10-12T23:23:41.623Z,99480.84
2022-10-12T23:26:14.101Z,99498.66
2022-10-12T23:28:41.328Z,99492.06
2022-10-12T23:31:13.931Z,99484.66
2022-10-12T23:33:41.295Z,99487.16
2022-10-12T23:36:12.176Z,99486.31
2022-10-12T23:38:40.503Z,99469.50
2022-10-12T23:41:07.844Z,99489.22
2022-10-12T23:43:35.270Z,99488.38
2022-10-12T23:46:04.188Z,99483.25
2022-10-12T23:48:31.379Z,99496.09
2022-10-12T23:50:58.225Z,99502.31
2022-10-12T23:53:25.931Z,99489.66
2022-10-12T23:55:52.812Z,99499.97
2022-10-12T23:58:20.108Z,99508.63
